Time;durP1;ratioP1;P1;durP2;ratioP2;P2;SDS_P1;SDS_P2;PMS_P1;PMS_P2;Temp;Humidity;BMP_temperature;BMP_pressure;BME280_temperature;BME280_humidity;BME280_pressure;Samples;Min_cycle;Max_cycle;Signal;HPM_P1;HPM_P2
2023/12/18 00:02:00;;;;;;;1.17;1.00;;;;;;;16.08;36.17;98464.75;10404411;28;20393;-30
2023/12/18 00:07:01;;;;;;;0.97;0.70;;;;;;;16.06;36.55;98460.44;10405680;28;20029;-31
2023/12/18 00:12:01;;;;;;;1.65;0.90;;;;;;;16.03;36.37;98451.06;10407580;28;20049;-30
2023/12/18 00:17:01;;;;;;;1.10;0.80;;;;;;;16.06;36.21;98451.22;10414738;28;20043;-31
2023/12/18 00:22:02;;;;;;;1.23;0.90;;;;;;;16.08;36.46;98446.19;10406236;28;20495;-30
2023/12/18 00:27:02;;;;;;;1.23;0.77;;;;;;;16.10;36.15;98440.41;10407495;28;20303;-30
2023/12/18 00:32:03;;;;;;;0.90;0.60;;;;;;;16.11;36.42;98437.06;10404562;28;20056;-30
2023/12/18 00:37:04;;;;;;;0.77;0.40;;;;;;;16.10;36.50;98437.03;10405137;28;20033;-30
2023/12/18 00:42:04;;;;;;;1.20;0.50;;;;;;;16.09;36.33;98426.06;10407000;28;20094;-31
2023/12/18 00:47:05;;;;;;;0.47;0.47;;;;;;;16.04;36.43;98419.13;10405242;28;20535;-30
2023/12/18 00:52:05;;;;;;;0.80;0.40;;;;;;;16.06;36.84;98433.53;10403242;28;20180;-30
2023/12/18 00:57:05;;;;;;;0.57;0.50;;;;;;;16.06;36.80;98435.19;10406823;28;20040;-29
2023/12/18 01:02:06;;;;;;;2.20;0.40;;;;;;;16.04;36.69;98444.38;10405299;28;20041;-30
2023/12/18 01:07:06;;;;;;;0.73;0.57;;;;;;;16.01;36.45;98437.53;10406506;28;20029;-30
2023/12/18 01:12:06;;;;;;;0.37;0.30;;;;;;;15.99;36.78;98436.63;10406237;28;20789;-31
2023/12/18 01:17:07;;;;;;;0.87;0.70;;;;;;;15.99;36.86;98441.69;10406180;28;20036;-30
2023/12/18 01:22:07;;;;;;;0.77;0.77;;;;;;;16.01;36.26;98435.00;10407411;28;20059;-31
2023/12/18 01:27:07;;;;;;;2.65;0.80;;;;;;;16.03;36.34;98433.41;10411561;28;20116;-30
2023/12/18 01:32:08;;;;;;;1.07;0.80;;;;;;;16.02;36.28;98429.16;10407191;28;20045;-30
2023/12/18 01:37:09;;;;;;;0.60;0.50;;;;;;;16.06;36.86;98431.00;10404531;28;20040;-30
2023/12/18 01:42:09;;;;;;;1.50;0.47;;;;;;;16.05;36.60;98426.75;10404893;28;20045;-29
2023/12/18 01:47:11;;;;;;;0.83;0.47;;;;;;;16.06;37.06;98423.41;10398615;28;20034;-30
2023/12/18 01:52:12;;;;;;;0.70;0.50;;;;;;;16.08;36.92;98431.91;10401312;28;20578;-30
2023/12/18 01:57:15;;;;;;;0.38;0.30;;;;;;;16.10;36.94;98432.81;10415088;28;20123;-30
2023/12/18 02:02:16;;;;;;;0.80;0.50;;;;;;;16.11;37.01;98416.84;10398540;28;20500;-29
2023/12/18 02:07:16;;;;;;;0.70;0.50;;;;;;;16.12;37.12;98408.47;10400739;28;20033;-30
2023/12/18 02:12:17;;;;;;;0.77;0.53;;;;;;;16.12;36.97;98408.47;10404328;28;20038;-30
2023/12/18 02:17:17;;;;;;;0.33;0.27;;;;;;;16.12;37.26;98412.69;10402539;28;20044;-30
2023/12/18 02:22:17;;;;;;;0.23;0.20;;;;;;;16.09;37.37;98403.31;10402232;28;20029;-30
2023/12/18 02:27:18;;;;;;;0.50;0.50;;;;;;;16.08;37.18;98401.59;10406800;28;20029;-30
2023/12/18 02:32:18;;;;;;;0.70;0.40;;;;;;;16.09;37.45;98408.38;10398149;28;20041;-31
2023/12/18 02:37:19;;;;;;;0.30;0.27;;;;;;;16.12;37.33;98389.94;10401725;28;20026;-29
2023/12/18 02:42:19;;;;;;;0.40;0.30;;;;;;;16.15;37.39;98382.44;10403519;28;20044;-30
2023/12/18 02:47:19;;;;;;;0.93;0.20;;;;;;;16.12;37.29;98387.41;10401916;28;20040;-30
2023/12/18 02:52:20;;;;;;;0.22;0.17;;;;;;;16.09;37.61;98377.16;10395811;28;20129;-32
2023/12/18 02:57:23;;;;;;;0.25;0.20;;;;;;;16.08;37.54;98381.38;10409281;28;20029;-31
2023/12/18 03:02:23;;;;;;;0.40;0.22;;;;;;;16.10;37.61;98378.91;10397644;28;20048;-30
2023/12/18 03:07:23;;;;;;;0.40;0.20;;;;;;;16.11;37.63;98371.38;10393329;28;20044;-30
2023/12/18 03:12:24;;;;;;;0.27;0.20;;;;;;;16.12;37.50;98373.09;10402557;28;20045;-29
2023/12/18 03:17:24;;;;;;;0.77;0.20;;;;;;;16.07;37.40;98358.56;10406125;28;20036;-30
2023/12/18 03:22:24;;;;;;;0.33;0.20;;;;;;;16.13;37.57;98362.16;10404071;28;20149;-30
2023/12/18 03:27:25;;;;;;;0.20;0.20;;;;;;;16.14;37.65;98345.34;10410312;28;20470;-30
2023/12/18 03:32:25;;;;;;;0.10;0.10;;;;;;;16.17;37.54;98353.91;10406304;28;20426;-30
2023/12/18 03:37:26;;;;;;;0.55;0.20;;;;;;;16.14;37.95;98352.94;10403899;28;20091;-30
2023/12/18 03:42:26;;;;;;;0.20;0.20;;;;;;;16.22;37.84;98360.00;10404004;28;20426;-30
2023/12/18 03:47:27;;;;;;;0.40;0.20;;;;;;;16.21;37.83;98358.25;10406740;28;21573;-31
2023/12/18 03:52:27;;;;;;;0.20;0.20;;;;;;;16.19;37.56;98339.66;10407333;28;20110;-33
2023/12/18 03:57:27;;;;;;;0.43;0.20;;;;;;;16.23;37.74;98346.56;10404786;28;20108;-30
2023/12/18 04:02:28;;;;;;;0.20;0.10;;;;;;;16.22;37.70;98347.34;10407597;28;20048;-30
2023/12/18 04:07:28;;;;;;;0.43;0.20;;;;;;;16.24;37.99;98345.75;10407037;28;20350;-30
2023/12/18 04:12:29;;;;;;;0.27;0.20;;;;;;;16.24;37.42;98350.78;10407100;28;20133;-26
2023/12/18 04:17:29;;;;;;;0.40;0.40;;;;;;;16.26;37.66;98346.63;10413482;28;20435;-30
2023/12/18 04:22:30;;;;;;;0.20;0.10;;;;;;;16.24;37.49;98339.81;10403981;28;20414;-30
2023/12/18 04:27:30;;;;;;;0.05;0.05;;;;;;;16.22;37.69;98342.31;10402954;28;20187;-31
2023/12/18 04:32:31;;;;;;;1.40;0.20;;;;;;;16.23;37.94;98338.09;10398839;28;20038;-31
2023/12/18 04:37:32;;;;;;;0.47;0.13;;;;;;;16.20;37.92;98340.53;10397175;28;20055;-32
2023/12/18 04:42:33;;;;;;;0.10;0.10;;;;;;;16.22;37.78;98342.31;10396498;28;20052;-31
2023/12/18 04:47:33;;;;;;;0.70;0.10;;;;;;;16.24;37.70;98337.28;10401711;28;20487;-30
2023/12/18 04:52:33;;;;;;;0.10;0.10;;;;;;;16.28;37.58;98345.03;10403914;28;20041;-29
2023/12/18 04:57:35;;;;;;;0.07;0.00;;;;;;;16.28;37.24;98339.13;10407500;28;20399;-30
2023/12/18 05:02:36;;;;;;;0.20;0.20;;;;;;;16.19;36.99;98314.38;10400939;28;20069;-31
2023/12/18 05:07:36;;;;;;;0.30;0.10;;;;;;;16.34;37.00;98335.13;10404038;28;20505;-30
2023/12/18 05:12:37;;;;;;;0.57;0.45;;;;;;;16.32;37.39;98328.28;10397684;28;20068;-31
2023/12/18 05:17:38;;;;;;;0.30;0.20;;;;;;;16.32;37.06;98336.75;10400374;28;20033;-30
2023/12/18 05:22:38;;;;;;;0.50;0.20;;;;;;;16.32;36.91;98325.75;10403957;28;20033;-30
2023/12/18 05:27:39;;;;;;;0.60;0.20;;;;;;;15.97;38.02;98332.16;10399873;28;20033;-30
2023/12/18 05:32:41;;;;;;;0.40;0.20;;;;;;;15.72;37.66;98344.72;10400799;28;20080;-30
2023/12/18 05:37:42;;;;;;;0.45;0.40;;;;;;;15.58;37.31;98338.28;10401240;28;20028;-30
2023/12/18 05:42:42;;;;;;;1.37;0.40;;;;;;;15.59;37.65;98336.59;10401531;28;20033;-29
2023/12/18 05:47:42;;;;;;;6.03;0.50;;;;;;;15.60;37.56;98333.31;10395115;28;20101;-30
2023/12/18 05:52:43;;;;;;;0.70;0.47;;;;;;;15.75;36.94;98342.28;10387950;28;20318;-31
2023/12/18 05:57:43;;;;;;;0.70;0.50;;;;;;;16.01;36.73;98333.97;10396868;28;20588;-31
2023/12/18 06:02:43;;;;;;;1.07;0.60;;;;;;;16.13;36.15;98343.66;10396600;28;20517;-30
2023/12/18 06:07:44;;;;;;;0.83;0.60;;;;;;;16.09;36.37;98337.63;10405410;28;20354;-30
2023/12/18 06:12:44;;;;;;;1.77;0.50;;;;;;;16.00;36.52;98337.31;10401202;28;20434;-29
2023/12/18 06:17:45;;;;;;;0.25;0.20;;;;;;;16.03;36.61;98334.03;10401524;28;20108;-30
2023/12/18 06:22:45;;;;;;;0.97;0.40;;;;;;;15.96;37.06;98329.56;10398993;28;20045;-31
2023/12/18 06:27:45;;;;;;;0.33;0.33;;;;;;;15.67;37.13;98336.09;10403723;28;20025;-30
2023/12/18 06:32:46;;;;;;;3.77;1.23;;;;;;;15.80;38.00;98350.91;10396687;28;20041;-31
2023/12/18 06:37:46;;;;;;;0.70;0.40;;;;;;;15.61;37.11;98342.59;10397162;28;21001;-31
2023/12/18 06:42:46;;;;;;;2.37;0.40;;;;;;;15.75;36.83;98339.75;10403716;28;20113;-30
2023/12/18 06:47:47;;;;;;;1.67;0.50;;;;;;;15.90;36.32;98342.84;10401797;28;20025;-30
2023/12/18 06:52:47;;;;;;;0.73;0.50;;;;;;;15.94;36.39;98347.19;10410465;28;20310;-31
2023/12/18 06:57:47;;;;;;;0.47;0.30;;;;;;;16.00;36.58;98344.00;10411289;28;20029;-30
2023/12/18 07:02:48;;;;;;;0.50;0.40;;;;;;;16.00;36.84;98352.47;10408123;28;20095;-30
2023/12/18 07:07:48;;;;;;;0.30;0.20;;;;;;;15.92;36.57;98331.13;10411437;28;20163;-29
2023/12/18 07:12:48;;;;;;;0.53;0.50;;;;;;;16.01;36.63;98349.13;10410560;28;20634;-30
2023/12/18 07:17:49;;;;;;;1.40;0.40;;;;;;;16.01;36.71;98349.13;10407656;28;20029;-30
2023/12/18 07:22:49;;;;;;;1.80;0.40;;;;;;;16.03;36.57;98347.50;10407626;28;20486;-30
2023/12/18 07:27:50;;;;;;;0.40;0.30;;;;;;;16.03;37.12;98350.03;10409625;28;20396;-30
2023/12/18 07:32:50;;;;;;;0.50;0.40;;;;;;;16.02;36.97;98345.78;10412282;28;20403;-30
2023/12/18 07:37:50;;;;;;;0.57;0.33;;;;;;;16.02;36.69;98340.72;10409746;28;20034;-30
2023/12/18 07:42:51;;;;;;;2.33;0.40;;;;;;;16.02;36.85;98350.84;10412350;28;20096;-30
2023/12/18 07:47:51;;;;;;;0.40;0.27;;;;;;;16.01;36.79;98339.03;10405517;28;20029;-30
2023/12/18 07:52:51;;;;;;;1.33;0.40;;;;;;;16.01;36.96;98348.25;10405613;28;20037;-31
2023/12/18 07:57:52;;;;;;;0.40;0.30;;;;;;;15.98;37.04;98348.16;10409395;28;20045;-30
2023/12/18 08:02:52;;;;;;;0.22;0.22;;;;;;;15.98;37.35;98343.97;10407575;28;20450;-31
2023/12/18 08:07:53;;;;;;;0.40;0.40;;;;;;;16.01;36.71;98333.97;10407688;28;20116;-30
2023/12/18 08:12:53;;;;;;;0.95;0.50;;;;;;;16.01;36.99;98333.97;10405729;28;20049;-30
2023/12/18 08:17:54;;;;;;;1.47;0.43;;;;;;;16.01;37.13;98333.97;10405689;28;20029;-30
2023/12/18 08:22:54;;;;;;;1.00;0.40;;;;;;;16.06;37.23;98340.06;10404733;28;20302;-30
2023/12/18 08:27:54;;;;;;;1.10;0.70;;;;;;;16.13;36.88;98336.91;10408004;28;20814;-30
2023/12/18 08:32:55;;;;;;;0.65;0.50;;;;;;;16.18;36.75;98335.41;10401494;28;20053;-29
2023/12/18 08:37:56;;;;;;;0.68;0.60;;;;;;;16.23;36.88;98328.84;10403206;28;20025;-30
2023/12/18 08:42:56;;;;;;;0.93;0.50;;;;;;;16.23;37.13;98313.69;10409468;28;20053;-30
2023/12/18 08:47:59;;;;;;;0.63;0.50;;;;;;;16.23;37.41;98321.28;10405448;28;20044;-31
2023/12/18 08:52:59;;;;;;;0.40;0.40;;;;;;;16.22;37.19;98331.31;10401623;28;20053;-30
2023/12/18 08:58:00;;;;;;;0.85;0.45;;;;;;;16.23;37.47;98338.09;10405642;28;20030;-30
2023/12/18 09:03:00;;;;;;;1.00;0.90;;;;;;;16.23;37.67;98331.38;10403244;28;20107;-30
2023/12/18 09:08:00;;;;;;;1.30;0.30;;;;;;;16.22;37.81;98324.63;10401342;28;20064;-29
2023/12/18 09:13:01;;;;;;;0.73;0.50;;;;;;;16.19;38.05;98321.13;10405626;28;20049;-29
2023/12/18 09:18:01;;;;;;;1.03;0.50;;;;;;;16.21;38.09;98325.41;10401052;28;20051;-30
2023/12/18 09:23:05;;;;;;;1.33;0.60;;;;;;;16.17;38.09;98326.13;10401112;28;20041;-31
2023/12/18 09:28:07;;;;;;;0.85;0.75;;;;;;;16.18;38.25;98320.25;10405545;28;20905;-30
2023/12/18 09:33:08;;;;;;;1.88;1.00;;;;;;;16.19;37.75;98319.44;10401916;28;20064;-30
2023/12/18 09:38:08;;;;;;;2.63;0.82;;;;;;;16.21;38.20;98316.97;10400483;28;20053;-30
2023/12/18 09:43:09;;;;;;;1.80;1.17;;;;;;;16.12;37.87;98297.28;10404512;28;20037;-30
2023/12/18 09:48:09;;;;;;;1.30;0.90;;;;;;;16.17;38.06;98308.44;10405247;28;20577;-30
2023/12/18 09:53:14;;;;;;;1.20;0.88;;;;;;;16.19;38.34;98306.81;10401884;28;20061;-30
2023/12/18 09:58:17;;;;;;;4.07;0.80;;;;;;;16.19;38.17;98299.22;10406860;28;20136;-30
2023/12/18 10:03:18;;;;;;;1.58;1.15;;;;;;;16.18;38.18;98297.50;10399057;28;20037;-29
2023/12/18 10:08:19;;;;;;;2.17;0.85;;;;;;;16.19;38.56;98303.44;10400089;28;20109;-29
2023/12/18 10:13:19;;;;;;;1.73;0.90;;;;;;;16.21;38.55;98302.66;10402694;28;20037;-30
2023/12/18 10:18:23;;;;;;;0.90;0.80;;;;;;;16.19;38.49;98304.28;10404132;28;20041;-30
2023/12/18 10:23:24;;;;;;;1.38;1.10;;;;;;;16.18;38.52;98297.50;10398550;28;20034;-30
2023/12/18 10:28:24;;;;;;;1.35;0.90;;;;;;;16.17;38.95;98293.25;10411296;28;20103;-30
2023/12/18 10:33:25;;;;;;;2.00;0.87;;;;;;;16.13;39.04;98283.84;10412147;28;20147;-30
2023/12/18 10:38:29;;;;;;;2.97;1.05;;;;;;;16.05;38.99;98270.13;10406613;28;20064;-30
2023/12/18 10:43:34;;;;;;;2.25;1.00;;;;;;;16.13;39.40;98273.72;10411852;28;20033;-30
2023/12/18 10:48:36;;;;;;;2.67;0.98;;;;;;;16.11;39.36;98270.31;10411066;28;20439;-30
2023/12/18 10:53:38;;;;;;;1.15;0.88;;;;;;;16.13;39.66;98271.22;10405427;28;20112;-30
2023/12/18 10:58:40;;;;;;;0.85;0.85;;;;;;;16.14;39.80;98270.44;10410332;28;20048;-30
2023/12/18 11:03:41;;;;;;;2.17;0.80;;;;;;;16.14;39.51;98264.50;10411307;28;20069;-30
2023/12/18 11:08:41;;;;;;;1.80;0.80;;;;;;;16.16;39.50;98257.81;10406415;28;20112;-30
2023/12/18 11:14:06;;;;;;;1.50;0.80;;;;;;;16.21;39.41;98252.13;10411103;28;20029;-31
2023/12/18 11:19:30;;;;;;;2.10;0.60;;;;;;;16.11;40.27;98240.00;10407630;28;20037;-29
2023/12/18 11:24:37;;;;;;;1.90;0.63;;;;;;;16.24;39.71;98228.63;10403975;28;20075;-30
2023/12/18 11:29:38;;;;;;;0.85;0.45;;;;;;;16.28;39.56;98223.72;10406647;28;20446;-30
2023/12/18 11:34:40;;;;;;;2.60;0.90;;;;;;;16.30;39.64;98217.03;10406417;28;20091;-30
2023/12/18 11:39:40;;;;;;;1.00;0.57;;;;;;;16.33;40.07;98211.22;10401487;28;20025;-32
2023/12/18 11:44:40;;;;;;;0.57;0.50;;;;;;;16.32;40.14;98212.91;10405926;28;20038;-31
2023/12/18 11:49:41;;;;;;;1.93;0.83;;;;;;;16.33;39.80;98207.03;10408400;28;20601;-30
2023/12/18 11:54:41;;;;;;;0.60;0.60;;;;;;;16.32;40.10;98215.44;10402875;28;20547;-30
2023/12/18 11:59:43;;;;;;;1.83;0.80;;;;;;;16.33;40.12;98204.50;10409572;28;20030;-30
2023/12/18 12:04:44;;;;;;;1.23;0.80;;;;;;;16.35;40.31;98200.34;10406738;28;20041;-33
2023/12/18 12:09:57;;;;;;;2.30;0.90;;;;;;;16.35;40.46;98190.25;10404429;28;20476;-29
2023/12/18 12:14:59;;;;;;;1.17;0.90;;;;;;;16.35;40.34;98187.72;10404438;28;20048;-29
2023/12/18 12:20:00;;;;;;;1.45;0.98;;;;;;;16.35;40.48;98189.41;10406933;28;20034;-29
2023/12/18 12:25:00;;;;;;;3.40;1.13;;;;;;;16.33;40.74;98166.59;10406485;28;20495;-30
2023/12/18 12:30:04;;;;;;;1.38;1.02;;;;;;;16.37;40.42;98168.44;10418320;28;20049;-30
2023/12/18 12:35:07;;;;;;;1.52;1.05;;;;;;;16.42;40.46;98166.91;10407161;28;20393;-31
2023/12/18 12:40:07;;;;;;;3.80;1.00;;;;;;;16.36;40.49;98161.63;10401345;28;20057;-30
2023/12/18 12:45:10;;;;;;;1.20;0.95;;;;;;;16.38;40.51;98154.97;10414636;28;20470;-30
2023/12/18 12:50:11;;;;;;;1.23;0.95;;;;;;;16.37;40.35;98153.25;10412386;28;20056;-30
2023/12/18 12:55:11;;;;;;;1.20;0.98;;;;;;;16.38;40.64;98142.34;10397528;28;20038;-30
2023/12/18 13:00:18;;;;;;;1.25;0.85;;;;;;;16.15;40.59;98140.75;10397846;28;20033;-31
2023/12/18 13:05:18;;;;;;;14.00;1.38;;;;;;;16.33;41.82;98140.44;10408946;28;20048;-30
2023/12/18 13:10:19;;;;;;;3.37;1.20;;;;;;;16.41;41.36;98134.88;10410222;28;20418;-31
2023/12/18 13:15:19;;;;;;;9.47;1.57;;;;;;;16.38;41.02;98128.88;10397833;28;20049;-30
2023/12/18 13:20:20;;;;;;;4.25;1.23;;;;;;;16.34;40.94;98125.34;10411917;28;20033;-30
2023/12/18 13:25:20;;;;;;;6.15;1.00;;;;;;;16.36;40.99;98130.47;10406080;28;20124;-29
2023/12/18 13:30:21;;;;;;;2.10;0.97;;;;;;;16.35;40.97;98123.69;10404627;28;20506;-30
2023/12/18 13:35:22;;;;;;;1.63;0.87;;;;;;;16.35;41.04;98119.47;10405844;28;20044;-30
2023/12/18 13:40:23;;;;;;;1.83;1.52;;;;;;;16.32;41.51;98099.19;10407462;28;20302;-30
2023/12/18 13:45:23;;;;;;;4.05;1.40;;;;;;;16.38;40.87;98114.53;10412569;28;20633;-30
2023/12/18 13:50:23;;;;;;;8.47;1.70;;;;;;;16.39;40.88;98111.22;10409767;28;20056;-30
2023/12/18 13:55:24;;;;;;;4.20;1.70;;;;;;;16.40;41.05;98118.00;10419209;28;20826;-30
2023/12/18 14:00:24;;;;;;;1.97;1.13;;;;;;;16.40;40.84;98105.34;10420059;28;20025;-30
2023/12/18 14:05:25;;;;;;;1.67;1.10;;;;;;;16.41;40.97;98108.72;10422636;28;20037;-32
2023/12/18 14:10:25;;;;;;;2.92;1.13;;;;;;;16.40;40.69;98104.47;10417443;28;20617;-30
2023/12/18 14:15:27;;;;;;;6.18;2.00;;;;;;;16.40;40.52;98092.72;10418146;28;20131;-30
2023/12/18 14:20:28;;;;;;;2.60;2.40;;;;;;;16.41;40.70;98099.47;10413123;28;20120;-30
2023/12/18 14:25:29;;;;;;;4.47;1.63;;;;;;;16.39;40.95;98101.13;10410526;28;20069;-31
2023/12/18 14:30:29;;;;;;;3.20;1.83;;;;;;;16.34;40.98;98110.19;10408458;28;20074;-30
2023/12/18 14:35:30;;;;;;;6.23;2.47;;;;;;;16.33;41.26;98100.91;10413709;28;20036;-31
2023/12/18 14:40:30;;;;;;;9.27;2.05;;;;;;;16.34;40.89;98111.84;10406928;28;20411;-30
2023/12/18 14:45:31;;;;;;;3.33;1.50;;;;;;;16.34;40.99;98102.59;10398979;28;20033;-30
2023/12/18 14:50:33;;;;;;;5.53;1.95;;;;;;;16.34;40.85;98102.59;10404491;28;20049;-30
2023/12/18 14:55:33;;;;;;;2.72;1.50;;;;;;;16.35;40.79;98109.38;10403570;28;20564;-29
2023/12/18 15:00:34;;;;;;;3.97;1.33;;;;;;;16.31;40.38;98104.19;10408099;28;20026;-30
2023/12/18 15:05:34;;;;;;;3.95;1.20;;;;;;;16.29;40.54;98108.34;10405355;28;20030;-30
2023/12/18 15:10:35;;;;;;;2.93;1.37;;;;;;;16.27;40.33;98093.13;10399207;28;20044;-29
2023/12/18 15:15:35;;;;;;;3.33;1.97;;;;;;;16.28;39.99;98101.56;10404118;28;20041;-29
2023/12/18 15:20:36;;;;;;;2.72;1.92;;;;;;;16.35;39.95;98104.31;10408296;28;20033;-29
2023/12/18 15:25:36;;;;;;;3.93;2.40;;;;;;;16.47;39.87;98104.72;10409965;28;20045;-31
2023/12/18 15:30:37;;;;;;;3.10;1.80;;;;;;;16.52;39.49;98107.41;10412830;28;20057;-30
2023/12/18 15:35:37;;;;;;;1.98;1.40;;;;;;;16.43;39.47;98100.38;10401563;28;20326;-30
2023/12/18 15:40:37;;;;;;;2.23;1.67;;;;;;;16.42;39.41;98106.25;10403955;28;20380;-30
2023/12/18 15:45:38;;;;;;;2.40;2.17;;;;;;;16.36;39.43;98095.06;10411903;28;20036;-31
2023/12/18 15:50:38;;;;;;;3.72;2.20;;;;;;;16.36;39.28;98095.91;10409993;28;20041;-30
2023/12/18 15:55:38;;;;;;;2.53;1.70;;;;;;;16.38;39.12;98096.00;10405642;28;20033;-29
2023/12/18 16:00:39;;;;;;;10.30;3.50;;;;;;;16.37;38.93;98086.72;10403413;28;20035;-29
2023/12/18 16:05:39;;;;;;;12.90;6.03;;;;;;;16.36;39.25;98080.75;10406080;28;20041;-30
2023/12/18 16:10:40;;;;;;;7.60;4.67;;;;;;;16.35;38.67;98068.94;10407866;28;20111;-29
2023/12/18 16:15:40;;;;;;;9.05;4.22;;;;;;;16.34;38.56;98069.75;10410815;28;20770;-29
2023/12/18 16:20:41;;;;;;;4.97;3.85;;;;;;;16.35;38.56;98071.47;10413437;28;20492;-30
2023/12/18 16:25:42;;;;;;;5.13;3.40;;;;;;;16.37;38.61;98077.44;10410051;28;20120;-30
2023/12/18 16:30:48;;;;;;;3.28;2.22;;;;;;;16.37;38.40;98072.38;10404147;28;20041;-29
2023/12/18 16:35:48;;;;;;;3.38;2.28;;;;;;;16.35;37.92;98079.03;10409171;28;20033;-30
2023/12/18 16:40:53;;;;;;;8.70;3.07;;;;;;;16.30;38.91;98080.56;10410336;28;20030;-30
2023/12/18 16:45:53;;;;;;;6.63;2.25;;;;;;;16.35;39.27;98083.25;10409107;28;20095;-30
2023/12/18 16:50:54;;;;;;;3.50;1.80;;;;;;;16.37;39.50;98077.44;10411316;28;20078;-30
2023/12/18 16:55:55;;;;;;;3.70;2.15;;;;;;;16.34;39.64;98084.91;10408465;28;20107;-30
2023/12/18 17:00:55;;;;;;;3.47;1.80;;;;;;;16.29;39.98;98085.59;10402411;28;20075;-31
2023/12/18 17:05:55;;;;;;;3.97;1.80;;;;;;;16.31;40.07;98092.41;10400134;28;20045;-30
2023/12/18 17:10:56;;;;;;;4.47;2.73;;;;;;;16.46;39.99;98090.34;10401324;28;20034;-29
2023/12/18 17:15:56;;;;;;;4.77;1.73;;;;;;;16.60;40.81;98086.56;10402876;28;20284;-30
2023/12/18 17:20:57;;;;;;;2.10;1.30;;;;;;;16.73;40.49;98076.00;10402080;28;20042;-29
2023/12/18 17:25:58;;;;;;;2.67;1.90;;;;;;;16.85;40.20;98063.69;10404836;28;20033;-30
2023/12/18 17:30:58;;;;;;;4.72;2.88;;;;;;;16.93;40.71;98057.16;10399738;28;20543;-30
2023/12/18 17:35:59;;;;;;;4.03;2.33;;;;;;;16.99;40.87;98053.13;10396408;28;20500;-29
2023/12/18 17:40:59;;;;;;;3.40;2.07;;;;;;;17.04;40.53;98060.81;10395575;28;20033;-30
2023/12/18 17:45:59;;;;;;;2.33;1.73;;;;;;;17.08;40.06;98047.47;10408961;28;20148;-31
2023/12/18 17:51:00;;;;;;;1.83;1.37;;;;;;;17.16;40.64;98048.53;10401940;28;20060;-30
2023/12/18 17:56:01;;;;;;;3.85;1.98;;;;;;;17.21;40.89;98049.47;10400109;28;20037;-31
2023/12/18 18:01:01;;;;;;;2.43;1.57;;;;;;;17.25;41.06;98041.16;10401367;28;20041;-30
2023/12/18 18:06:01;;;;;;;8.83;1.70;;;;;;;17.30;41.89;98042.13;10408533;28;20304;-30
2023/12/18 18:11:03;;;;;;;2.80;1.77;;;;;;;17.25;41.28;98051.28;10400473;28;20065;-30
2023/12/18 18:16:04;;;;;;;3.20;1.63;;;;;;;17.26;40.79;98048.78;10398131;28;20675;-31
2023/12/18 18:21:04;;;;;;;2.80;1.58;;;;;;;16.93;42.09;98045.38;10393685;28;20040;-30
2023/12/18 18:26:05;;;;;;;2.27;1.40;;;;;;;16.98;38.39;98040.44;10393592;28;20085;-32
2023/12/18 18:31:06;;;;;;;2.10;1.25;;;;;;;16.99;38.35;98034.56;10400266;28;20060;-30
2023/12/18 18:36:07;;;;;;;5.07;1.60;;;;;;;16.93;39.18;98034.41;10387242;28;20049;-30
2023/12/18 18:41:07;;;;;;;2.08;1.50;;;;;;;16.95;37.42;98020.97;10401036;28;20054;-30
2023/12/18 18:46:12;;;;;;;2.37;1.50;;;;;;;16.88;38.98;98023.28;10405683;28;20495;-30
2023/12/18 18:51:13;;;;;;;1.42;1.20;;;;;;;16.77;37.50;98024.69;10407586;28;20037;-30
2023/12/18 18:56:13;;;;;;;3.50;1.53;;;;;;;16.77;36.67;98030.59;10409751;28;20045;-30
2023/12/18 19:01:14;;;;;;;1.83;1.55;;;;;;;16.74;36.46;98037.25;10409587;28;20045;-30
2023/12/18 19:06:14;;;;;;;2.80;2.03;;;;;;;16.81;36.37;98031.53;10407730;28;20037;-29
2023/12/18 19:11:15;;;;;;;2.45;1.55;;;;;;;16.82;37.91;98028.19;10410645;28;20025;-29
2023/12/18 19:16:15;;;;;;;2.13;1.40;;;;;;;16.92;38.69;98013.28;10403888;28;20091;-30
2023/12/18 19:21:15;;;;;;;1.60;1.20;;;;;;;17.00;39.44;98028.69;10412372;28;20039;-30
2023/12/18 19:26:16;;;;;;;2.53;1.10;;;;;;;17.04;39.98;98030.47;10412721;28;20042;-31
2023/12/18 19:31:16;;;;;;;2.13;1.20;;;;;;;17.05;41.01;98024.59;10405880;28;20056;-30
2023/12/18 19:36:16;;;;;;;2.43;1.27;;;;;;;17.06;41.23;98013.69;10407994;28;20036;-29
2023/12/18 19:41:18;;;;;;;2.90;1.20;;;;;;;17.08;41.49;98017.09;10408164;28;20087;-30
2023/12/18 19:46:19;;;;;;;2.63;1.42;;;;;;;17.10;41.71;98023.03;10407442;28;20291;-30
2023/12/18 19:51:19;;;;;;;1.80;1.13;;;;;;;17.09;41.37;98013.75;10390338;28;20470;-29
2023/12/18 19:56:19;;;;;;;3.10;1.10;;;;;;;17.09;41.65;98023.88;10411714;28;20060;-30
2023/12/18 20:01:20;;;;;;;1.47;1.00;;;;;;;16.93;41.38;97998.97;10404884;28;20121;-30
2023/12/18 20:06:20;;;;;;;1.38;1.20;;;;;;;16.99;41.52;98020.22;10401679;28;20037;-30
2023/12/18 20:11:21;;;;;;;2.37;1.33;;;;;;;17.02;41.69;98011.88;10405235;28;20079;-30
2023/12/18 20:16:21;;;;;;;1.85;1.55;;;;;;;17.04;41.44;98015.28;10405141;28;20164;-30
2023/12/18 20:21:22;;;;;;;1.10;0.90;;;;;;;17.01;41.49;98010.16;10404536;28;20029;-30
2023/12/18 20:26:22;;;;;;;1.60;1.10;;;;;;;16.98;40.90;98000.81;10404215;28;20124;-30
2023/12/18 20:31:22;;;;;;;1.77;1.30;;;;;;;17.03;41.35;98014.44;10403117;28;20053;-29
2023/12/18 20:36:24;;;;;;;2.07;1.30;;;;;;;17.00;40.93;98018.56;10393722;28;20322;-32
2023/12/18 20:41:24;;;;;;;2.85;1.60;;;;;;;16.99;40.83;98016.84;10404662;28;20535;-31
2023/12/18 20:46:25;;;;;;;1.43;1.33;;;;;;;17.03;40.65;98014.44;10402787;28;20037;-30
2023/12/18 20:51:25;;;;;;;1.95;1.27;;;;;;;16.89;40.50;98005.63;10397520;28;20041;-32
2023/12/18 20:56:26;;;;;;;1.60;1.25;;;;;;;17.02;40.49;98001.75;10403356;28;20037;-30
2023/12/18 21:01:26;;;;;;;1.77;1.07;;;;;;;17.05;40.74;98015.34;10404570;28;20034;-31
2023/12/18 21:06:29;;;;;;;2.30;1.20;;;;;;;17.08;40.81;98017.09;10404690;28;20033;-30
2023/12/18 21:11:30;;;;;;;2.00;1.42;;;;;;;16.88;40.62;97995.47;10402252;28;20044;-30
2023/12/18 21:16:30;;;;;;;1.20;1.07;;;;;;;16.77;39.91;97994.31;10400769;28;20051;-30
2023/12/18 21:21:30;;;;;;;2.20;1.30;;;;;;;16.82;39.67;98013.03;10401059;28;20569;-30
2023/12/18 21:26:31;;;;;;;1.33;1.13;;;;;;;16.81;39.47;98002.03;10402904;28;20043;-31
2023/12/18 21:31:31;;;;;;;1.70;1.30;;;;;;;16.77;39.41;97996.84;10402051;28;20519;-30
2023/12/18 21:36:31;;;;;;;1.83;1.33;;;;;;;16.69;39.19;97990.72;10400242;28;20459;-30
2023/12/18 21:41:32;;;;;;;1.00;0.90;;;;;;;16.71;39.17;97980.66;10404071;28;20333;-30
2023/12/18 21:46:32;;;;;;;2.47;1.00;;;;;;;16.73;38.97;97994.19;10404839;28;20038;-29
2023/12/18 21:51:32;;;;;;;1.10;0.90;;;;;;;16.66;39.31;97974.63;10400163;28;21000;-30
2023/12/18 21:56:34;;;;;;;1.37;1.20;;;;;;;16.66;39.81;97975.50;10400885;28;20478;-29
2023/12/18 22:01:34;;;;;;;1.00;0.80;;;;;;;16.79;38.95;97983.44;10402241;28;20026;-30
2023/12/18 22:06:35;;;;;;;1.77;1.10;;;;;;;16.85;38.90;97981.09;10400859;28;20041;-30
2023/12/18 22:11:35;;;;;;;2.00;1.42;;;;;;;16.90;39.10;97966.03;10402092;28;20304;-30
2023/12/18 22:16:36;;;;;;;1.40;1.10;;;;;;;16.88;38.90;97962.56;10401790;28;20041;-30
2023/12/18 22:21:36;;;;;;;2.60;1.10;;;;;;;16.90;38.79;97960.97;10398625;28;20507;-30
2023/12/18 22:26:37;;;;;;;1.17;0.90;;;;;;;16.89;38.98;97959.25;10396386;28;20037;-30
2023/12/18 22:31:37;;;;;;;1.02;0.82;;;;;;;16.89;39.03;97944.06;10400500;28;20606;-30
2023/12/18 22:36:38;;;;;;;1.07;0.90;;;;;;;16.90;39.03;97928.91;10402228;28;20029;-30
2023/12/18 22:41:40;;;;;;;1.73;0.95;;;;;;;16.92;39.23;97923.91;10405993;28;20331;-30
2023/12/18 22:46:40;;;;;;;1.40;1.00;;;;;;;16.91;39.20;97922.19;10398172;28;20040;-30
2023/12/18 22:51:40;;;;;;;1.47;1.07;;;;;;;16.90;38.94;97918.81;10398772;28;20040;-30
2023/12/18 22:56:41;;;;;;;1.03;0.83;;;;;;;16.89;39.03;97901.06;10403734;28;20276;-30
2023/12/18 23:01:41;;;;;;;1.13;0.80;;;;;;;16.90;38.86;97895.19;10397416;28;20021;-30
2023/12/18 23:06:41;;;;;;;1.10;0.70;;;;;;;16.91;39.29;97901.97;10399569;28;20491;-31
2023/12/18 23:11:44;;;;;;;0.70;0.68;;;;;;;16.82;38.73;97881.50;10403503;28;20037;-30
2023/12/18 23:16:45;;;;;;;1.17;0.80;;;;;;;16.89;39.11;97893.50;10397766;28;20159;-29